createdAt,value
2014-07-14T00:00:16.969Z,24.9
2014-07-14T00:00:35.188Z,24.9
2014-07-14T00:00:52.922Z,24.9
2014-07-14T00:01:11.159Z,24.9
2014-07-14T00:01:28.127Z,24.9
2014-07-14T00:01:46.346Z,24.9
2014-07-14T00:02:03.457Z,24.9
2014-07-14T00:02:21.832Z,24.9
2014-07-14T00:02:39.426Z,24.9
2014-07-14T00:02:57.645Z,24.9
2014-07-14T00:03:15.256Z,24.9
2014-07-14T00:03:33.475Z,24.9
2014-07-14T00:03:50.459Z,24.9
2014-07-14T00:04:08.055Z,24.9
2014-07-14T00:04:26.290Z,24.9
2014-07-14T00:04:43.883Z,24.9
2014-07-14T00:05:02.118Z,24.9
2014-07-14T00:05:20.354Z,24.9
2014-07-14T00:05:37.948Z,24.9
2014-07-14T00:05:55.588Z,24.9
2014-07-14T00:06:12.684Z,24.9
2014-07-14T00:06:30.903Z,24.9
2014-07-14T00:06:48.637Z,24.9
2014-07-14T00:07:06.247Z,24.9
2014-07-14T00:07:24.483Z,24.9
2014-07-14T00:07:42.717Z,24.9
2014-07-14T00:08:00.311Z,24.9
2014-07-14T00:08:17.423Z,24.9
2014-07-14T00:08:35.641Z,24.9
2014-07-14T00:08:53.876Z,24.9
2014-07-14T00:09:11.469Z,24.9
2014-07-14T00:09:29.065Z,24.9
2014-07-14T00:09:47.425Z,24.9
2014-07-14T00:10:05.659Z,24.9
2014-07-14T00:10:23.895Z,24.9
2014-07-14T00:10:42.114Z,24.9
2014-07-14T00:11:00.348Z,24.9
2014-07-14T00:11:18.583Z,24.9
2014-07-14T00:11:36.179Z,24.9
2014-07-14T00:11:53.772Z,24.9
2014-07-14T00:12:10.741Z,24.9
2014-07-14T00:12:28.352Z,24.9
2014-07-14T00:12:45.962Z,24.9
2014-07-14T00:13:04.196Z,24.9
2014-07-14T00:13:22.415Z,24.9
2014-07-14T00:13:40.026Z,24.9
2014-07-14T00:13:57.620Z,24.9
2014-07-14T00:14:15.214Z,24.9
2014-07-14T00:14:32.200Z,24.9
2014-07-14T00:14:50.419Z,24.8
2014-07-14T00:15:06.778Z,24.8
2014-07-14T00:15:24.372Z,24.9
2014-07-14T00:15:41.968Z,24.8
2014-07-14T00:16:00.202Z,24.8
2014-07-14T00:16:18.437Z,24.8
2014-07-14T00:16:36.030Z,24.8
2014-07-14T00:16:53.642Z,24.8
2014-07-14T00:17:09.985Z,24.8
2014-07-14T00:17:28.345Z,24.8
2014-07-14T00:17:46.581Z,24.8
2014-07-14T00:18:04.175Z,24.8
2014-07-14T00:18:21.784Z,24.8
2014-07-14T00:18:39.378Z,24.8
2014-07-14T00:18:56.365Z,24.8
2014-07-14T00:19:14.584Z,24.7
2014-07-14T00:19:32.819Z,24.7
2014-07-14T00:19:50.412Z,24.7
2014-07-14T00:20:08.148Z,24.7
2014-07-14T00:20:25.757Z,24.7
2014-07-14T00:20:43.351Z,24.7
2014-07-14T00:21:00.947Z,24.7
2014-07-14T00:21:18.556Z,24.8
2014-07-14T00:21:36.775Z,24.7
2014-07-14T00:21:55.009Z,24.7
2014-07-14T00:22:12.620Z,24.8
2014-07-14T00:22:29.589Z,24.7
2014-07-14T00:22:47.824Z,24.8
2014-07-14T00:23:05.419Z,24.8
2014-07-14T00:23:23.013Z,24.8
2014-07-14T00:23:40.763Z,24.8
2014-07-14T00:23:58.357Z,24.7
2014-07-14T00:24:15.969Z,24.7
2014-07-14T00:24:33.563Z,24.7
2014-07-14T00:24:50.547Z,24.7
2014-07-14T00:25:08.143Z,24.8
2014-07-14T00:25:26.377Z,24.7
2014-07-14T00:25:43.471Z,24.7
2014-07-14T00:26:00.456Z,24.7
2014-07-14T00:26:18.675Z,24.7
2014-07-14T00:26:36.285Z,24.7
2014-07-14T00:26:53.878Z,24.7
2014-07-14T00:27:12.115Z,24.7
2014-07-14T00:27:29.084Z,24.7
2014-07-14T00:27:47.443Z,24.7
2014-07-14T00:28:05.677Z,24.7
2014-07-14T00:28:23.274Z,24.7
2014-07-14T00:28:41.508Z,24.7
2014-07-14T00:28:59.727Z,24.8
2014-07-14T00:29:16.073Z,24.7
2014-07-14T00:29:33.682Z,24.7
2014-07-14T00:29:51.276Z,24.7
2014-07-14T00:30:09.526Z,24.7
2014-07-14T00:30:27.121Z,24.7
2014-07-14T00:30:44.855Z,24.7
2014-07-14T00:31:02.465Z,24.7
2014-07-14T00:31:20.685Z,24.7
2014-07-14T00:31:38.279Z,24.7
2014-07-14T00:31:55.888Z,24.7
2014-07-14T00:32:14.107Z,24.7
2014-07-14T00:32:31.719Z,24.7
2014-07-14T00:32:49.937Z,24.7
2014-07-14T00:33:07.547Z,24.7
2014-07-14T00:33:25.142Z,24.7
2014-07-14T00:33:42.127Z,24.7
2014-07-14T00:33:59.721Z,24.7
2014-07-14T00:34:17.955Z,24.7
2014-07-14T00:34:35.551Z,24.7
2014-07-14T00:34:53.144Z,24.7
2014-07-14T00:35:11.379Z,24.7
2014-07-14T00:35:28.975Z,24.7
2014-07-14T00:35:46.568Z,24.7
2014-07-14T00:36:03.053Z,24.7
2014-07-14T00:36:20.646Z,24.7
2014-07-14T00:36:38.883Z,24.7
2014-07-14T00:36:57.102Z,24.7
2014-07-14T00:37:14.711Z,24.7
2014-07-14T00:37:31.680Z,24.7
2014-07-14T00:37:49.291Z,24.7
2014-07-14T00:38:06.885Z,24.7
2014-07-14T00:38:25.119Z,24.6
2014-07-14T00:38:42.716Z,24.6
2014-07-14T00:39:00.325Z,24.6
2014-07-14T00:39:18.544Z,24.6
2014-07-14T00:39:36.153Z,24.7
2014-07-14T00:39:54.374Z,24.7
2014-07-14T00:40:11.984Z,24.6
2014-07-14T00:40:30.202Z,24.6
2014-07-14T00:40:47.172Z,24.6
2014-07-14T00:41:04.781Z,24.7
2014-07-14T00:41:22.375Z,24.6
2014-07-14T00:41:39.360Z,24.6
2014-07-14T00:41:56.955Z,24.6
2014-07-14T00:42:13.924Z,24.6
2014-07-14T00:42:32.158Z,24.6
2014-07-14T00:42:49.754Z,24.6
2014-07-14T00:43:07.348Z,24.6
2014-07-14T00:43:25.582Z,24.6
2014-07-14T00:43:43.176Z,24.6
2014-07-14T00:44:00.787Z,24.6
2014-07-14T00:44:19.006Z,24.6
2014-07-14T00:44:37.241Z,24.6
2014-07-14T00:44:55.603Z,24.6
2014-07-14T00:45:13.962Z,24.6
2014-07-14T00:45:31.556Z,24.6
2014-07-14T00:45:49.790Z,24.6
2014-07-14T00:46:07.401Z,24.6
2014-07-14T00:46:25.182Z,24.5
2014-07-14T00:46:42.776Z,24.6
2014-07-14T00:47:00.372Z,24.5
2014-07-14T00:47:17.981Z,24.6
2014-07-14T00:47:36.200Z,24.5
2014-07-14T00:47:54.450Z,24.5
2014-07-14T00:48:12.686Z,24.5
2014-07-14T00:48:30.295Z,24.5
2014-07-14T00:48:48.514Z,24.5
2014-07-14T00:49:06.751Z,24.5
2014-07-14T00:49:24.344Z,24.5
2014-07-14T00:49:42.579Z,24.6
2014-07-14T00:50:00.797Z,24.5
2014-07-14T00:50:18.409Z,24.6
2014-07-14T00:50:36.003Z,24.6
2014-07-14T00:50:52.346Z,24.6
2014-07-14T00:51:09.959Z,24.6
2014-07-14T00:51:26.927Z,24.6
2014-07-14T00:51:45.146Z,24.6
2014-07-14T00:52:02.756Z,24.6
2014-07-14T00:52:20.350Z,24.6
2014-07-14T00:52:37.319Z,24.6
2014-07-14T00:52:55.678Z,24.6
2014-07-14T00:53:12.649Z,24.6
2014-07-14T00:53:30.259Z,24.6
2014-07-14T00:53:48.680Z,24.6
2014-07-14T00:54:06.212Z,24.6
2014-07-14T00:54:24.449Z,24.6
2014-07-14T00:54:42.043Z,24.6
2014-07-14T00:55:00.277Z,24.6
2014-07-14T00:55:18.498Z,24.6
2014-07-14T00:55:36.732Z,24.7
2014-07-14T00:55:53.076Z,24.6
2014-07-14T00:56:11.310Z,24.7
2014-07-14T00:56:28.421Z,24.7
2014-07-14T00:56:46.015Z,24.7
2014-07-14T00:57:04.233Z,24.6
2014-07-14T00:57:21.343Z,24.7
2014-07-14T00:57:38.938Z,24.7
2014-07-14T00:57:56.688Z,24.7
2014-07-14T00:58:14.923Z,24.7
2014-07-14T00:58:31.895Z,24.7
2014-07-14T00:58:50.113Z,24.7
2014-07-14T00:59:07.723Z,24.7
2014-07-14T00:59:25.316Z,24.7
2014-07-14T00:59:43.553Z,24.7
2014-07-14T01:00:00.522Z,24.7
2014-07-14T01:00:18.740Z,24.7
2014-07-14T01:00:35.727Z,24.7
2014-07-14T01:00:53.320Z,24.7
2014-07-14T01:01:10.914Z,24.7
2014-07-14T01:01:27.883Z,24.7
2014-07-14T01:01:45.494Z,24.7
2014-07-14T01:02:03.729Z,24.7
2014-07-14T01:02:21.322Z,24.7
2014-07-14T01:02:38.916Z,24.7
2014-07-14T01:02:56.512Z,24.7
2014-07-14T01:03:14.746Z,24.7
2014-07-14T01:03:31.731Z,24.7
2014-07-14T01:03:49.325Z,24.7
2014-07-14T01:04:07.685Z,24.7
2014-07-14T01:04:25.294Z,24.7
2014-07-14T01:04:42.888Z,24.7
2014-07-14T01:05:01.124Z,24.7
2014-07-14T01:05:19.359Z,24.7
2014-07-14T01:05:37.593Z,24.7
2014-07-14T01:05:55.189Z,24.7
2014-07-14T01:06:12.783Z,24.7
2014-07-14T01:06:30.439Z,24.7
2014-07-14T01:06:48.033Z,24.7
2014-07-14T01:07:05.645Z,24.8
2014-07-14T01:07:23.270Z,24.7
2014-07-14T01:07:41.489Z,24.7
2014-07-14T01:07:59.725Z,24.7
2014-07-14T01:08:17.334Z,24.7
2014-07-14T01:08:35.553Z,24.7
2014-07-14T01:08:53.163Z,24.7
2014-07-14T01:09:11.382Z,24.7
2014-07-14T01:09:28.976Z,24.7
2014-07-14T01:09:47.210Z,24.7
2014-07-14T01:10:04.823Z,24.7
2014-07-14T01:10:21.792Z,24.7
2014-07-14T01:10:39.401Z,24.7
2014-07-14T01:10:56.995Z,24.7
2014-07-14T01:11:14.606Z,24.7
2014-07-14T01:11:32.200Z,24.7
2014-07-14T01:11:49.809Z,24.7
2014-07-14T01:12:08.028Z,24.7
2014-07-14T01:12:26.263Z,24.7
2014-07-14T01:12:44.482Z,24.7
2014-07-14T01:13:02.716Z,24.7
2014-07-14T01:13:19.687Z,24.7
2014-07-14T01:13:36.656Z,24.7
2014-07-14T01:13:55.031Z,24.7
2014-07-14T01:14:13.265Z,24.7
2014-07-14T01:14:31.487Z,24.7
2014-07-14T01:14:49.721Z,24.7
2014-07-14T01:15:07.956Z,24.7
2014-07-14T01:15:24.927Z,24.7
2014-07-14T01:15:43.145Z,24.7
2014-07-14T01:16:00.755Z,24.7
2014-07-14T01:16:18.973Z,24.6
2014-07-14T01:16:36.585Z,24.7
2014-07-14T01:16:54.804Z,24.7
2014-07-14T01:17:12.413Z,24.7
2014-07-14T01:17:30.008Z,24.6
2014-07-14T01:17:48.242Z,24.7
2014-07-14T01:18:06.461Z,24.7
2014-07-14T01:18:24.695Z,24.7
2014-07-14T01:18:42.292Z,24.7
2014-07-14T01:19:00.526Z,24.7
2014-07-14T01:19:18.761Z,24.7
2014-07-14T01:19:36.980Z,24.7
2014-07-14T01:19:53.965Z,24.7
2014-07-14T01:20:12.184Z,24.7
2014-07-14T01:20:29.793Z,24.7
2014-07-14T01:20:47.390Z,24.7
2014-07-14T01:21:05.624Z,24.6
2014-07-14T01:21:23.218Z,24.6
2014-07-14T01:21:41.454Z,24.6
2014-07-14T01:21:59.048Z,24.6
2014-07-14T01:22:16.642Z,24.6
2014-07-14T01:22:34.876Z,24.6
2014-07-14T01:22:52.612Z,24.6
2014-07-14T01:23:10.206Z,24.6
2014-07-14T01:23:27.941Z,24.6
2014-07-14T01:23:46.177Z,24.6
2014-07-14T01:24:04.411Z,24.6
2014-07-14T01:24:22.630Z,24.7
2014-07-14T01:24:40.239Z,24.7
2014-07-14T01:24:57.210Z,24.7
2014-07-14T01:25:15.445Z,24.7
2014-07-14T01:25:33.663Z,24.7
2014-07-14T01:25:51.900Z,24.7
2014-07-14T01:26:09.493Z,24.7
2014-07-14T01:26:27.087Z,24.7
2014-07-14T01:26:45.322Z,24.7
2014-07-14T01:27:02.291Z,24.7
2014-07-14T01:27:19.885Z,24.7
2014-07-14T01:27:38.119Z,24.7
2014-07-14T01:27:55.091Z,24.7
2014-07-14T01:28:11.435Z,24.7
2014-07-14T01:28:29.654Z,24.7
2014-07-14T01:28:47.888Z,24.7
2014-07-14T01:29:05.484Z,24.7
2014-07-14T01:29:23.718Z,24.7
2014-07-14T01:29:41.328Z,24.6
2014-07-14T01:29:58.923Z,24.6
2014-07-14T01:30:17.158Z,24.6
2014-07-14T01:30:34.126Z,24.6
2014-07-14T01:30:51.720Z,24.6
2014-07-14T01:31:09.957Z,24.6
2014-07-14T01:31:27.566Z,24.6
2014-07-14T01:31:45.160Z,24.6
2014-07-14T01:32:01.505Z,24.6
2014-07-14T01:32:19.740Z,24.6
2014-07-14T01:32:36.709Z,24.6
2014-07-14T01:32:54.318Z,24.6
2014-07-14T01:33:12.539Z,24.6
2014-07-14T01:33:30.773Z,24.6
2014-07-14T01:33:48.992Z,24.6
2014-07-14T01:34:06.602Z,24.6
2014-07-14T01:34:24.196Z,24.6
2014-07-14T01:34:42.430Z,24.6
2014-07-14T01:35:00.649Z,24.6
2014-07-14T01:35:18.260Z,24.6
2014-07-14T01:35:35.870Z,24.6
2014-07-14T01:35:54.089Z,24.6
2014-07-14T01:36:12.326Z,24.6
2014-07-14T01:36:30.545Z,24.6
2014-07-14T01:36:48.779Z,24.6
2014-07-14T01:37:07.013Z,24.6
2014-07-14T01:37:24.609Z,24.6
2014-07-14T01:37:42.219Z,24.6
2014-07-14T01:38:00.437Z,24.6
2014-07-14T01:38:18.049Z,24.5
2014-07-14T01:38:36.283Z,24.5
2014-07-14T01:38:54.502Z,24.5
2014-07-14T01:39:12.736Z,24.5
2014-07-14T01:39:30.956Z,24.5
2014-07-14T01:39:47.940Z,24.5
2014-07-14T01:40:06.159Z,24.5
2014-07-14T01:40:23.771Z,24.5
2014-07-14T01:40:42.006Z,24.5
2014-07-14T01:40:58.975Z,24.5
2014-07-14T01:41:16.568Z,24.5
2014-07-14T01:41:34.805Z,24.5
2014-07-14T01:41:52.398Z,24.5
2014-07-14T01:42:10.633Z,24.5
2014-07-14T01:42:28.244Z,24.6
2014-07-14T01:42:46.463Z,24.6
2014-07-14T01:43:04.072Z,24.6
2014-07-14T01:43:22.291Z,24.6
2014-07-14T01:43:39.887Z,24.6
2014-07-14T01:43:58.121Z,24.6
2014-07-14T01:44:16.356Z,24.6
2014-07-14T01:44:34.576Z,24.6
2014-07-14T01:44:52.811Z,24.6
2014-07-14T01:45:11.029Z,24.6
2014-07-14T01:45:29.264Z,24.6
2014-07-14T01:45:46.875Z,24.6
2014-07-14T01:46:03.844Z,24.6
2014-07-14T01:46:22.063Z,24.6
2014-07-14T01:46:40.299Z,24.6
2014-07-14T01:46:57.893Z,24.6
2014-07-14T01:47:14.877Z,24.6
2014-07-14T01:47:33.096Z,24.6
2014-07-14T01:47:50.707Z,24.6
2014-07-14T01:48:08.301Z,24.6
2014-07-14T01:48:25.895Z,24.6
2014-07-14T01:48:44.131Z,24.6
2014-07-14T01:49:01.725Z,24.6
2014-07-14T01:49:19.334Z,24.6
2014-07-14T01:49:37.553Z,24.6
2014-07-14T01:49:55.164Z,24.6
2014-07-14T01:50:12.758Z,24.6
2014-07-14T01:50:29.868Z,24.6
2014-07-14T01:50:47.604Z,24.6
2014-07-14T01:51:05.823Z,24.6
2014-07-14T01:51:24.057Z,24.6
2014-07-14T01:51:41.651Z,24.6
2014-07-14T01:51:58.637Z,24.6
2014-07-14T01:52:16.856Z,24.6
2014-07-14T01:52:35.231Z,24.6
2014-07-14T01:52:52.827Z,24.6
2014-07-14T01:53:09.795Z,24.6
2014-07-14T01:53:27.405Z,24.6
2014-07-14T01:53:44.374Z,24.6
2014-07-14T01:54:02.610Z,24.6
2014-07-14T01:54:20.204Z,24.6
2014-07-14T01:54:38.422Z,24.6
2014-07-14T01:54:56.657Z,24.6
2014-07-14T01:55:14.893Z,24.6
2014-07-14T01:55:33.253Z,24.6
2014-07-14T01:55:50.846Z,24.6
2014-07-14T01:56:07.818Z,24.6
2014-07-14T01:56:25.552Z,24.6
2014-07-14T01:56:43.146Z,24.6
2014-07-14T01:57:00.756Z,24.6
2014-07-14T01:57:18.366Z,24.6
2014-07-14T01:57:36.585Z,24.6
2014-07-14T01:57:54.194Z,24.5
2014-07-14T01:58:11.790Z,24.6
2014-07-14T01:58:28.899Z,24.5
2014-07-14T01:58:46.634Z,24.5
2014-07-14T01:59:04.868Z,24.6
2014-07-14T01:59:23.089Z,24.5
2014-07-14T01:59:41.323Z,24.5
2014-07-14T01:59:59.542Z,24.5
2014-07-14T02:00:17.778Z,24.5
2014-07-14T02:00:35.372Z,24.5
2014-07-14T02:00:53.606Z,24.5
2014-07-14T02:01:11.216Z,24.5
2014-07-14T02:01:28.811Z,24.5
2014-07-14T02:01:47.046Z,24.5
2014-07-14T02:02:04.640Z,24.5
2014-07-14T02:02:22.876Z,24.5
2014-07-14T02:02:40.470Z,24.5
2014-07-14T02:02:58.079Z,24.5
2014-07-14T02:03:15.188Z,24.5
2014-07-14T02:03:33.409Z,24.5
2014-07-14T02:03:51.628Z,24.5
2014-07-14T02:04:08.612Z,24.5
2014-07-14T02:04:26.349Z,24.5
2014-07-14T02:04:43.958Z,24.5
2014-07-14T02:05:02.177Z,24.5
2014-07-14T02:05:20.411Z,24.5
2014-07-14T02:05:38.007Z,24.5
2014-07-14T02:05:56.241Z,24.6
2014-07-14T02:06:14.476Z,24.6
2014-07-14T02:06:32.696Z,24.6
2014-07-14T02:06:50.290Z,24.6
2014-07-14T02:07:07.275Z,24.6
2014-07-14T02:07:23.743Z,24.6
2014-07-14T02:07:40.730Z,24.6
2014-07-14T02:07:58.948Z,24.6
2014-07-14T02:08:16.558Z,24.6
2014-07-14T02:08:34.167Z,24.6
2014-07-14T02:08:51.763Z,24.6
2014-07-14T02:09:09.997Z,24.6
2014-07-14T02:09:28.216Z,24.6
2014-07-14T02:09:46.484Z,24.6
2014-07-14T02:10:04.046Z,24.6
2014-07-14T02:10:21.031Z,24.6
2014-07-14T02:10:39.249Z,24.6
2014-07-14T02:10:57.486Z,24.6
2014-07-14T02:11:15.079Z,24.6
2014-07-14T02:11:33.314Z,24.6
2014-07-14T02:11:51.535Z,24.6
2014-07-14T02:12:09.769Z,24.6
2014-07-14T02:12:27.363Z,24.6
2014-07-14T02:12:44.472Z,24.6
2014-07-14T02:13:02.708Z,24.6
2014-07-14T02:13:20.302Z,24.6
2014-07-14T02:13:37.896Z,24.5
2014-07-14T02:13:54.867Z,24.5
2014-07-14T02:14:13.101Z,24.6
2014-07-14T02:14:30.070Z,24.6
2014-07-14T02:14:47.695Z,24.6
2014-07-14T02:15:04.666Z,24.6
2014-07-14T02:15:22.259Z,24.6
2014-07-14T02:15:39.869Z,24.6
2014-07-14T02:15:58.087Z,24.6
2014-07-14T02:16:16.325Z,24.6
2014-07-14T02:16:33.919Z,24.6
2014-07-14T02:16:51.512Z,24.6
2014-07-14T02:17:09.108Z,24.6
2014-07-14T02:17:26.702Z,24.6
2014-07-14T02:17:44.936Z,24.6
2014-07-14T02:18:03.296Z,24.5
2014-07-14T02:18:20.890Z,24.6
2014-07-14T02:18:38.625Z,24.5
2014-07-14T02:18:56.843Z,24.5
2014-07-14T02:19:15.080Z,24.5
2014-07-14T02:19:32.674Z,24.5
2014-07-14T02:19:50.267Z,24.5
2014-07-14T02:20:07.861Z,24.5
2014-07-14T02:20:26.222Z,24.5
2014-07-14T02:20:44.457Z,24.5
2014-07-14T02:21:02.051Z,24.5
2014-07-14T02:21:19.646Z,24.5
2014-07-14T02:21:36.631Z,24.5
2014-07-14T02:21:54.224Z,24.5
2014-07-14T02:22:12.459Z,24.5
2014-07-14T02:22:29.431Z,24.5
2014-07-14T02:22:47.665Z,24.5
2014-07-14T02:23:04.634Z,24.5
2014-07-14T02:23:22.852Z,24.5
2014-07-14T02:23:41.089Z,24.5
2014-07-14T02:23:59.323Z,24.5
2014-07-14T02:24:17.542Z,24.5
2014-07-14T02:24:35.138Z,24.5
2014-07-14T02:24:52.247Z,24.5
2014-07-14T02:25:09.981Z,24.5
2014-07-14T02:25:27.575Z,24.5
2014-07-14T02:25:44.687Z,24.5
2014-07-14T02:26:02.280Z,24.5
2014-07-14T02:26:19.874Z,24.5
2014-07-14T02:26:38.108Z,24.5
2014-07-14T02:26:55.704Z,24.5
2014-07-14T02:27:13.939Z,24.5
2014-07-14T02:27:31.532Z,24.5
2014-07-14T02:27:49.769Z,24.5
2014-07-14T02:28:07.987Z,24.5
2014-07-14T02:28:25.597Z,24.5
2014-07-14T02:28:43.191Z,24.5
2014-07-14T02:29:00.785Z,24.5
2014-07-14T02:29:19.020Z,24.5
2014-07-14T02:29:36.613Z,24.5
2014-07-14T02:29:54.210Z,24.5
2014-07-14T02:30:12.445Z,24.5
2014-07-14T02:30:30.038Z,24.5
2014-07-14T02:30:47.632Z,24.5
2014-07-14T02:31:05.243Z,24.5
2014-07-14T02:31:22.212Z,24.5
2014-07-14T02:31:40.447Z,24.5
2014-07-14T02:31:58.667Z,24.5
2014-07-14T02:32:16.902Z,24.5
2014-07-14T02:32:35.120Z,24.5
2014-07-14T02:32:52.089Z,24.5
2014-07-14T02:33:10.326Z,24.5
2014-07-14T02:33:28.560Z,24.5
2014-07-14T02:33:46.154Z,24.5
2014-07-14T02:34:04.374Z,24.5
2014-07-14T02:34:21.984Z,24.5
2014-07-14T02:34:40.218Z,24.5
2014-07-14T02:34:58.453Z,24.5
2014-07-14T02:35:16.048Z,24.5
2014-07-14T02:35:33.642Z,24.5
2014-07-14T02:35:51.251Z,24.5
2014-07-14T02:36:08.221Z,24.5
2014-07-14T02:36:26.440Z,24.5
2014-07-14T02:36:44.674Z,24.5
2014-07-14T02:37:02.893Z,24.5
2014-07-14T02:37:20.505Z,24.5
2014-07-14T02:37:38.740Z,24.5
2014-07-14T02:37:56.334Z,24.5
2014-07-14T02:38:14.554Z,24.5
2014-07-14T02:38:31.523Z,24.5
2014-07-14T02:38:49.757Z,24.5
2014-07-14T02:39:07.367Z,24.5
2014-07-14T02:39:24.963Z,24.5
2014-07-14T02:39:43.181Z,24.5
2014-07-14T02:40:01.416Z,24.5
2014-07-14T02:40:19.652Z,24.5
2014-07-14T02:40:36.621Z,24.5
2014-07-14T02:40:54.840Z,24.5
2014-07-14T02:41:13.074Z,24.5
2014-07-14T02:41:30.670Z,24.5
2014-07-14T02:41:48.279Z,24.5
2014-07-14T02:42:05.873Z,24.5
2014-07-14T02:42:23.484Z,24.5
2014-07-14T02:42:41.703Z,24.5
2014-07-14T02:42:59.312Z,24.5
2014-07-14T02:43:17.531Z,24.5
2014-07-14T02:43:35.267Z,24.5
2014-07-14T02:43:52.861Z,24.5
2014-07-14T02:44:10.471Z,24.5
2014-07-14T02:44:28.082Z,24.5
2014-07-14T02:44:45.676Z,24.5
2014-07-14T02:45:03.269Z,24.5
2014-07-14T02:45:21.504Z,24.5
2014-07-14T02:45:39.115Z,24.5
2014-07-14T02:45:57.334Z,24.5
2014-07-14T02:46:14.318Z,24.5
2014-07-14T02:46:31.289Z,24.5
2014-07-14T02:46:48.273Z,24.5
2014-07-14T02:47:05.867Z,24.5
2014-07-14T02:47:22.852Z,24.5
2014-07-14T02:47:41.088Z,24.5
2014-07-14T02:47:59.322Z,24.5
2014-07-14T02:48:17.541Z,24.5
2014-07-14T02:48:35.150Z,24.5
2014-07-14T02:48:52.746Z,24.5
2014-07-14T02:49:10.356Z,24.5
2014-07-14T02:49:28.574Z,24.5
2014-07-14T02:49:46.811Z,24.4
2014-07-14T02:50:05.045Z,24.4
2014-07-14T02:50:22.639Z,24.4
2014-07-14T02:50:40.248Z,24.4
2014-07-14T02:50:58.469Z,24.4
2014-07-14T02:51:16.703Z,24.4
2014-07-14T02:51:34.313Z,24.4
2014-07-14T02:51:52.549Z,24.4
2014-07-14T02:52:10.768Z,24.4
2014-07-14T02:52:29.002Z,24.5
2014-07-14T02:52:46.612Z,24.4
2014-07-14T02:53:02.957Z,24.5
2014-07-14T02:53:21.192Z,24.4
2014-07-14T02:53:38.785Z,24.5
2014-07-14T02:53:57.022Z,24.5
2014-07-14T02:54:15.256Z,24.5
2014-07-14T02:54:33.491Z,24.5
2014-07-14T02:54:51.084Z,24.4
2014-07-14T02:55:09.321Z,24.4
2014-07-14T02:55:26.305Z,24.4
2014-07-14T02:55:43.274Z,24.4
2014-07-14T02:56:00.885Z,24.4
2014-07-14T02:56:19.120Z,24.4
2014-07-14T02:56:36.713Z,24.4
2014-07-14T02:56:54.948Z,24.4
2014-07-14T02:57:12.543Z,24.4
2014-07-14T02:57:29.528Z,24.4
2014-07-14T02:57:46.497Z,24.4
2014-07-14T02:58:04.733Z,24.4
2014-07-14T02:58:21.717Z,24.4
2014-07-14T02:58:39.952Z,24.4
2014-07-14T02:58:57.545Z,24.4
2014-07-14T02:59:15.782Z,24.4
2014-07-14T02:59:33.376Z,24.4
2014-07-14T02:59:51.610Z,24.4
2014-07-14T03:00:08.721Z,24.5
2014-07-14T03:00:26.331Z,24.4
2014-07-14T03:00:43.924Z,24.5
2014-07-14T03:01:01.518Z,24.5
2014-07-14T03:01:19.755Z,24.4
2014-07-14T03:01:37.364Z,24.4
2014-07-14T03:01:54.973Z,24.5
2014-07-14T03:02:13.194Z,24.5
2014-07-14T03:02:31.428Z,24.5
2014-07-14T03:02:49.663Z,24.5
2014-07-14T03:03:07.257Z,24.5
2014-07-14T03:03:25.493Z,24.5
2014-07-14T03:03:43.727Z,24.5
2014-07-14T03:04:02.087Z,24.5
2014-07-14T03:04:19.682Z,24.4
2014-07-14T03:04:37.917Z,24.5
2014-07-14T03:04:56.151Z,24.5
2014-07-14T03:05:13.745Z,24.5
2014-07-14T03:05:31.356Z,24.5
2014-07-14T03:05:48.966Z,24.5
2014-07-14T03:06:05.934Z,24.4
2014-07-14T03:06:24.171Z,24.5
2014-07-14T03:06:41.765Z,24.4
2014-07-14T03:06:59.374Z,24.5
2014-07-14T03:07:16.968Z,24.5
2014-07-14T03:07:35.204Z,24.5
2014-07-14T03:07:52.813Z,24.5
2014-07-14T03:08:10.407Z,24.5
2014-07-14T03:08:28.644Z,24.5
2014-07-14T03:08:46.878Z,24.5
2014-07-14T03:09:04.612Z,24.4
2014-07-14T03:09:22.206Z,24.5
2014-07-14T03:09:38.552Z,24.5
2014-07-14T03:09:56.927Z,24.4
2014-07-14T03:10:14.661Z,24.4
2014-07-14T03:10:32.880Z,24.4
2014-07-14T03:10:51.257Z,24.4
2014-07-14T03:11:09.476Z,24.4
2014-07-14T03:11:27.710Z,24.5
2014-07-14T03:11:45.321Z,24.4
2014-07-14T03:12:02.915Z,24.4
2014-07-14T03:12:21.150Z,24.5
2014-07-14T03:12:38.743Z,24.4
2014-07-14T03:12:56.980Z,24.4
2014-07-14T03:13:13.948Z,24.4
2014-07-14T03:13:32.183Z,24.4
2014-07-14T03:13:50.419Z,24.4
2014-07-14T03:14:08.638Z,24.4
2014-07-14T03:14:26.872Z,24.4
2014-07-14T03:14:44.482Z,24.4
2014-07-14T03:15:02.077Z,24.4
2014-07-14T03:15:19.187Z,24.4
2014-07-14T03:15:37.421Z,24.4
2014-07-14T03:15:53.768Z,24.4
2014-07-14T03:16:11.377Z,24.4
2014-07-14T03:16:29.596Z,24.4
2014-07-14T03:16:46.580Z,24.4
2014-07-14T03:17:03.550Z,24.4
2014-07-14T03:17:21.160Z,24.4
2014-07-14T03:17:39.394Z,24.4
2014-07-14T03:17:57.628Z,24.4
2014-07-14T03:18:13.975Z,24.4
2014-07-14T03:18:30.944Z,24.4
2014-07-14T03:18:48.553Z,24.4
2014-07-14T03:19:06.149Z,24.4
2014-07-14T03:19:23.758Z,24.4
2014-07-14T03:19:41.352Z,24.4
2014-07-14T03:19:58.336Z,24.4
2014-07-14T03:20:15.322Z,24.4
2014-07-14T03:20:32.291Z,24.4
2014-07-14T03:20:49.900Z,24.4
2014-07-14T03:21:08.134Z,24.4
2014-07-14T03:21:26.372Z,24.4
2014-07-14T03:21:44.606Z,24.4
2014-07-14T03:22:01.575Z,24.4
2014-07-14T03:22:19.826Z,24.4
2014-07-14T03:22:38.060Z,24.4
2014-07-14T03:22:55.029Z,24.4
2014-07-14T03:23:12.638Z,24.4
2014-07-14T03:23:30.875Z,24.4
2014-07-14T03:23:49.109Z,24.4
2014-07-14T03:24:07.343Z,24.4
2014-07-14T03:24:25.580Z,24.4
2014-07-14T03:24:43.799Z,24.4
2014-07-14T03:25:01.408Z,24.4
2014-07-14T03:25:18.392Z,24.5
2014-07-14T03:25:36.630Z,24.5
2014-07-14T03:25:54.364Z,24.5
2014-07-14T03:26:12.598Z,24.5
2014-07-14T03:26:30.209Z,24.4
2014-07-14T03:26:48.443Z,24.4
2014-07-14T03:27:06.053Z,24.4
2014-07-14T03:27:24.271Z,24.4
2014-07-14T03:27:42.509Z,24.4
2014-07-14T03:28:00.118Z,24.4
2014-07-14T03:28:18.352Z,24.4
2014-07-14T03:28:36.588Z,24.4
2014-07-14T03:28:54.182Z,24.4
2014-07-14T03:29:11.791Z,24.4
2014-07-14T03:29:30.025Z,24.4
2014-07-14T03:29:47.622Z,24.4
2014-07-14T03:30:04.606Z,24.4
2014-07-14T03:30:22.841Z,24.4
2014-07-14T03:30:41.077Z,24.4
2014-07-14T03:30:59.312Z,24.4
2014-07-14T03:31:16.905Z,24.4
2014-07-14T03:31:33.890Z,24.4
2014-07-14T03:31:51.501Z,24.4
2014-07-14T03:32:09.110Z,24.4
2014-07-14T03:32:26.720Z,24.4
2014-07-14T03:32:44.956Z,24.4
2014-07-14T03:33:01.925Z,24.4
2014-07-14T03:33:19.534Z,24.3
2014-07-14T03:33:37.769Z,24.4
2014-07-14T03:33:54.739Z,24.4
2014-07-14T03:34:12.974Z,24.3
2014-07-14T03:34:31.208Z,24.3
2014-07-14T03:34:48.818Z,24.3
2014-07-14T03:35:07.054Z,24.3
2014-07-14T03:35:24.663Z,24.3
2014-07-14T03:35:42.882Z,24.3
2014-07-14T03:36:01.118Z,24.3
2014-07-14T03:36:18.743Z,24.3
2014-07-14T03:36:36.353Z,24.3
2014-07-14T03:36:53.947Z,24.3
2014-07-14T03:37:12.183Z,24.3
2014-07-14T03:37:29.792Z,24.3
2014-07-14T03:37:48.027Z,24.2
2014-07-14T03:38:06.263Z,24.2
2014-07-14T03:38:23.872Z,24.2
2014-07-14T03:38:42.107Z,24.2
2014-07-14T03:38:59.716Z,24.2
2014-07-14T03:39:17.312Z,24.2
2014-07-14T03:39:35.546Z,24.2
2014-07-14T03:39:53.781Z,24.2
2014-07-14T03:40:12.017Z,24.2
2014-07-14T03:40:30.251Z,24.2
2014-07-14T03:40:47.861Z,24.3
2014-07-14T03:41:06.095Z,24.3
2014-07-14T03:41:24.331Z,24.3
2014-07-14T03:41:41.924Z,24.3
2014-07-14T03:41:59.534Z,24.3
2014-07-14T03:42:16.521Z,24.3
2014-07-14T03:42:34.130Z,24.3
2014-07-14T03:42:52.349Z,24.2
2014-07-14T03:43:09.959Z,24.3
2014-07-14T03:43:27.570Z,24.3
2014-07-14T03:43:45.179Z,24.3
2014-07-14T03:44:03.398Z,24.3
2014-07-14T03:44:21.009Z,24.2
2014-07-14T03:44:38.619Z,24.2
2014-07-14T03:44:56.853Z,24.3
2014-07-14T03:45:14.463Z,24.2
2014-07-14T03:45:32.699Z,24.2
2014-07-14T03:45:50.933Z,24.2
2014-07-14T03:46:09.168Z,24.3
2014-07-14T03:46:26.138Z,24.2
2014-07-14T03:46:43.748Z,24.3
2014-07-14T03:47:01.357Z,24.2
2014-07-14T03:47:19.592Z,24.3
2014-07-14T03:47:37.202Z,24.3
2014-07-14T03:47:54.796Z,24.3
2014-07-14T03:48:12.405Z,24.2
2014-07-14T03:48:30.642Z,24.2
2014-07-14T03:48:48.877Z,24.2
2014-07-14T03:49:07.111Z,24.2
2014-07-14T03:49:24.705Z,24.2
2014-07-14T03:49:40.440Z,24.2
2014-07-14T03:49:58.675Z,24.1
2014-07-14T03:50:16.909Z,24.2
2014-07-14T03:50:33.881Z,24.2
2014-07-14T03:50:52.115Z,24.2
2014-07-14T03:51:10.490Z,24.2
2014-07-14T03:51:28.725Z,24.2
2014-07-14T03:51:46.336Z,24.2
2014-07-14T03:52:03.305Z,24.2
2014-07-14T03:52:20.914Z,24.2
2014-07-14T03:52:37.885Z,24.2
2014-07-14T03:52:56.119Z,24.2
2014-07-14T03:53:12.479Z,24.2
2014-07-14T03:53:30.072Z,24.2
2014-07-14T03:53:48.309Z,24.2
2014-07-14T03:54:06.543Z,24.2
2014-07-14T03:54:24.152Z,24.2
2014-07-14T03:54:41.122Z,24.2
2014-07-14T03:54:58.107Z,24.2
2014-07-14T03:55:16.341Z,24.2
2014-07-14T03:55:33.950Z,24.2
2014-07-14T03:55:52.188Z,24.2
2014-07-14T03:56:09.797Z,24.2
2014-07-14T03:56:26.781Z,24.3
2014-07-14T03:56:45.001Z,24.3